createdAt,value
2023-02-01T00:02:03.737Z,1.02
2023-02-01T00:04:30.396Z,1.12
2023-02-01T00:06:57.041Z,0.87
2023-02-01T00:09:23.720Z,0.89
2023-02-01T00:11:50.379Z,0.91
2023-02-01T00:14:18.139Z,0.99
2023-02-01T00:16:44.858Z,0.91
2023-02-01T00:19:15.192Z,1.11
2023-02-01T00:21:42.522Z,1.09
2023-02-01T00:24:11.167Z,1.19
2023-02-01T00:26:40.909Z,1.23
2023-02-01T00:29:14.621Z,1.25
2023-02-01T00:31:41.455Z,1.09
2023-02-01T00:34:09.736Z,1.24
2023-02-01T00:36:36.427Z,1.13
2023-02-01T00:39:03.255Z,1.19
2023-02-01T00:41:30.034Z,1.36
2023-02-01T00:43:57.566Z,1.18
2023-02-01T00:46:24.430Z,1.38
2023-02-01T00:48:51.751Z,1.40
2023-02-01T00:51:21.952Z,1.29
2023-02-01T00:53:48.661Z,1.23
2023-02-01T00:56:15.720Z,1.38
2023-02-01T00:58:45.300Z,1.21
2023-02-01T01:01:21.900Z,1.19
2023-02-01T01:03:54.815Z,1.46
2023-02-01T01:06:25.306Z,1.08
2023-02-01T01:08:57.949Z,1.42
2023-02-01T01:11:27.424Z,1.29
2023-02-01T01:13:55.602Z,1.45
2023-02-01T01:16:23.830Z,1.43
2023-02-01T01:18:51.856Z,1.08
2023-02-01T01:21:19.069Z,1.43
2023-02-01T01:23:46.926Z,1.43
2023-02-01T01:26:17.507Z,1.44
2023-02-01T01:28:44.751Z,1.43
2023-02-01T01:31:12.728Z,1.35
2023-02-01T01:33:39.846Z,1.37
2023-02-01T01:36:12.115Z,1.11
2023-02-01T01:38:40.612Z,1.02
2023-02-01T01:41:08.044Z,1.30
2023-02-01T01:43:52.052Z,1.14
2023-02-01T01:46:21.458Z,1.36
2023-02-01T01:49:06.681Z,1.01
2023-02-01T01:51:38.496Z,1.35
2023-02-01T01:54:30.319Z,1.12
2023-02-01T01:57:02.704Z,0.92
2023-02-01T01:59:34.448Z,1.33
2023-02-01T02:02:01.171Z,1.12
2023-02-01T02:04:28.911Z,1.24
2023-02-01T02:07:00.793Z,1.27
2023-02-01T02:09:27.430Z,0.89
2023-02-01T02:11:54.121Z,0.83
2023-02-01T02:14:23.806Z,0.71
2023-02-01T02:17:22.875Z,1.31
2023-02-01T02:20:22.086Z,1.33
2023-02-01T02:23:13.017Z,1.27
2023-02-01T02:25:54.847Z,1.38
2023-02-01T02:28:21.628Z,1.42
2023-02-01T02:31:01.276Z,1.45
2023-02-01T02:34:02.009Z,1.52
2023-02-01T02:36:49.191Z,1.39
2023-02-01T02:39:24.908Z,1.60
2023-02-01T02:42:25.353Z,1.59
2023-02-01T02:45:40.112Z,1.27
2023-02-01T02:48:21.517Z,1.56
2023-02-01T02:51:40.498Z,1.46
2023-02-01T02:54:34.691Z,1.36
2023-02-01T02:57:23.744Z,1.46
2023-02-01T03:00:09.725Z,1.35
2023-02-01T03:02:55.043Z,1.31
2023-02-01T03:05:21.951Z,1.34
2023-02-01T03:07:54.773Z,1.29
2023-02-01T03:10:27.512Z,1.25
2023-02-01T03:12:58.758Z,1.04
2023-02-01T03:15:50.005Z,1.04
2023-02-01T03:18:30.751Z,0.98
2023-02-01T03:21:01.666Z,0.88
2023-02-01T03:23:34.895Z,0.86
2023-02-01T03:26:03.376Z,0.78
2023-02-01T03:28:34.615Z,0.55
2023-02-01T03:31:02.242Z,0.56
2023-02-01T03:33:31.218Z,0.79
2023-02-01T03:36:01.168Z,0.79
2023-02-01T03:38:51.788Z,0.75
2023-02-01T03:41:45.527Z,0.81
2023-02-01T03:44:56.107Z,0.79
2023-02-01T03:47:26.900Z,0.82
2023-02-01T03:49:59.193Z,0.79
2023-02-01T03:52:31.915Z,0.87
2023-02-01T03:55:00.035Z,1.00
2023-02-01T03:57:32.591Z,1.04
2023-02-01T04:00:08.714Z,1.01
2023-02-01T04:02:40.663Z,0.85
2023-02-01T04:05:08.131Z,0.65
2023-02-01T04:07:34.956Z,0.98
2023-02-01T04:10:01.688Z,0.96
2023-02-01T04:12:28.273Z,0.97
2023-02-01T04:14:54.802Z,0.85
2023-02-01T04:17:21.664Z,1.01
2023-02-01T04:19:48.289Z,1.16
2023-02-01T04:24:40.626Z,1.07
2023-02-01T04:27:07.330Z,1.20
2023-02-01T04:29:33.924Z,1.23
2023-02-01T04:32:00.593Z,1.06
2023-02-01T04:34:27.475Z,1.06
2023-02-01T04:36:54.111Z,0.95
2023-02-01T04:39:20.707Z,1.12
2023-02-01T04:41:47.269Z,1.33
2023-02-01T04:44:16.501Z,1.33
2023-02-01T04:46:43.239Z,1.32
2023-02-01T04:49:13.698Z,1.34
2023-02-01T04:51:41.736Z,1.34
2023-02-01T04:54:09.185Z,1.12
2023-02-01T04:56:35.811Z,1.04
2023-02-01T04:59:03.475Z,1.14
2023-02-01T05:01:30.655Z,1.36
2023-02-01T05:03:57.541Z,1.38
2023-02-01T05:06:24.222Z,1.29
2023-02-01T05:08:50.842Z,1.41
2023-02-01T05:11:36.267Z,1.25
2023-02-01T05:14:02.879Z,1.35
2023-02-01T05:16:29.511Z,1.15
2023-02-01T05:18:56.088Z,1.25
2023-02-01T05:21:22.905Z,1.37
2023-02-01T05:24:08.030Z,1.29
2023-02-01T05:26:34.756Z,1.15
2023-02-01T05:29:01.425Z,1.13
2023-02-01T05:31:28.603Z,1.33
2023-02-01T05:33:55.334Z,1.25
2023-02-01T05:36:22.029Z,1.10
2023-02-01T05:38:48.686Z,0.98
2023-02-01T05:41:15.325Z,1.16
2023-02-01T05:43:42.048Z,1.26
2023-02-01T05:46:11.652Z,1.03
2023-02-01T05:48:38.300Z,1.17
2023-02-01T05:51:05.110Z,1.10
2023-02-01T05:53:31.896Z,1.18
2023-02-01T05:55:58.499Z,1.12
2023-02-01T05:58:25.354Z,1.03
2023-02-01T06:00:51.950Z,1.15
2023-02-01T06:03:18.682Z,1.08
2023-02-01T06:05:46.170Z,1.26
2023-02-01T06:08:13.375Z,1.11
2023-02-01T06:10:40.188Z,1.09
2023-02-01T06:13:06.836Z,1.34
2023-02-01T06:15:34.511Z,1.34
2023-02-01T06:18:01.165Z,1.25
2023-02-01T06:20:27.862Z,1.29
2023-02-01T06:22:54.525Z,1.35
2023-02-01T06:25:22.321Z,1.22
2023-02-01T06:27:49.322Z,0.96
2023-02-01T06:30:16.413Z,1.15
2023-02-01T06:32:44.754Z,1.20
2023-02-01T06:35:17.752Z,1.39
2023-02-01T06:37:44.369Z,1.22
2023-02-01T06:40:11.877Z,1.27
2023-02-01T06:42:38.652Z,1.19
2023-02-01T06:45:07.687Z,1.34
2023-02-01T06:47:34.341Z,1.23
2023-02-01T06:50:00.975Z,1.27
2023-02-01T06:52:27.670Z,1.50
2023-02-01T06:54:54.307Z,1.44
2023-02-01T06:57:20.930Z,1.34
2023-02-01T06:59:47.528Z,1.29
2023-02-01T07:02:14.285Z,1.47
2023-02-01T07:04:40.924Z,1.54
2023-02-01T07:07:07.597Z,1.32
2023-02-01T07:09:34.227Z,1.51
2023-02-01T07:12:00.885Z,1.16
2023-02-01T07:14:29.462Z,1.35
2023-02-01T07:16:56.086Z,1.31
2023-02-01T07:19:22.711Z,1.37
2023-02-01T07:21:49.385Z,1.04
2023-02-01T07:24:15.961Z,1.34
2023-02-01T07:26:42.596Z,1.15
2023-02-01T07:29:09.336Z,1.32
2023-02-01T07:31:36.351Z,1.19
2023-02-01T07:34:03.809Z,1.14
2023-02-01T07:36:30.502Z,1.48
2023-02-01T07:38:58.796Z,1.40
2023-02-01T07:41:25.534Z,1.35
2023-02-01T07:43:55.683Z,1.64
2023-02-01T07:46:22.701Z,1.45
2023-02-01T07:48:49.462Z,1.45
2023-02-01T07:51:17.627Z,1.60
2023-02-01T07:53:45.508Z,1.58
2023-02-01T07:56:18.505Z,1.71
2023-02-01T07:58:49.735Z,0.83
2023-02-01T08:01:21.919Z,1.60
2023-02-01T08:03:50.720Z,1.71
2023-02-01T08:06:17.449Z,1.09
2023-02-01T08:08:46.207Z,1.70
2023-02-01T08:11:12.920Z,1.33
2023-02-01T08:13:40.332Z,1.59
2023-02-01T08:16:09.074Z,1.40
2023-02-01T08:18:37.310Z,1.76
2023-02-01T08:21:16.251Z,1.75
2023-02-01T08:23:43.352Z,1.64
2023-02-01T08:26:22.306Z,1.76
2023-02-01T08:28:56.603Z,1.78
2023-02-01T08:31:25.149Z,1.83
2023-02-01T08:33:55.126Z,1.45
2023-02-01T08:36:22.945Z,1.56
2023-02-01T08:38:49.704Z,2.08
2023-02-01T08:41:22.673Z,2.21
2023-02-01T08:43:49.391Z,1.93
2023-02-01T08:46:17.019Z,2.38
2023-02-01T08:48:43.876Z,2.15
2023-02-01T08:51:13.805Z,1.84
2023-02-01T08:53:43.915Z,1.71
2023-02-01T08:56:15.470Z,2.36
2023-02-01T08:58:42.484Z,1.87
2023-02-01T09:01:13.991Z,2.37
2023-02-01T09:03:41.244Z,2.41
2023-02-01T09:06:11.469Z,2.26
2023-02-01T09:08:39.560Z,2.29
2023-02-01T09:11:14.243Z,2.38
2023-02-01T09:13:40.859Z,2.41
2023-02-01T09:16:07.574Z,2.04
2023-02-01T09:18:34.417Z,2.25
2023-02-01T09:21:05.875Z,2.27
2023-02-01T09:23:32.707Z,2.20
2023-02-01T09:26:05.066Z,2.50
2023-02-01T09:28:32.066Z,2.61
2023-02-01T09:31:02.842Z,2.14
2023-02-01T09:33:30.019Z,2.26
2023-02-01T09:36:02.195Z,1.65
2023-02-01T09:38:29.341Z,2.56
2023-02-01T09:40:56.806Z,1.99
2023-02-01T09:43:41.238Z,1.80
2023-02-01T09:46:17.570Z,2.32
2023-02-01T09:48:46.178Z,2.73
2023-02-01T09:51:18.461Z,2.61
2023-02-01T09:53:49.317Z,2.70
2023-02-01T09:56:28.081Z,2.37
2023-02-01T09:59:18.164Z,2.86
2023-02-01T10:01:44.875Z,2.73
2023-02-01T10:04:15.478Z,2.63
2023-02-01T10:06:51.526Z,2.73
2023-02-01T10:09:36.891Z,2.67
2023-02-01T10:12:12.590Z,2.70
2023-02-01T10:15:00.942Z,2.69
2023-02-01T10:17:53.093Z,2.71
2023-02-01T10:20:53.219Z,2.73
2023-02-01T10:23:34.326Z,2.19
2023-02-01T10:26:21.692Z,2.42
2023-02-01T10:28:58.204Z,2.81
2023-02-01T10:31:32.958Z,2.57
2023-02-01T10:34:01.588Z,2.69
2023-02-01T10:37:04.011Z,2.82
2023-02-01T10:39:30.703Z,2.54
2023-02-01T10:41:57.534Z,2.31
2023-02-01T10:44:33.131Z,2.86
2023-02-01T10:46:59.794Z,2.69
2023-02-01T10:49:44.800Z,2.74
2023-02-01T10:52:20.492Z,2.69
2023-02-01T10:54:47.263Z,2.24
2023-02-01T10:57:27.001Z,2.27
2023-02-01T10:59:53.841Z,1.44
2023-02-01T11:02:32.104Z,2.49
2023-02-01T11:05:05.832Z,2.49
2023-02-01T11:07:33.584Z,2.40
2023-02-01T11:10:00.349Z,2.32
2023-02-01T11:12:33.219Z,2.60
2023-02-01T11:15:15.698Z,2.50
2023-02-01T11:17:48.063Z,2.65
2023-02-01T11:20:41.057Z,2.19
2023-02-01T11:23:19.413Z,2.46
2023-02-01T11:25:55.099Z,2.53
2023-02-01T11:28:28.967Z,2.77
2023-02-01T11:30:59.637Z,2.57
2023-02-01T11:33:32.172Z,2.13
2023-02-01T11:35:59.552Z,2.49
2023-02-01T11:38:31.094Z,2.83
2023-02-01T11:41:26.175Z,2.81
2023-02-01T11:44:00.485Z,2.93
2023-02-01T11:46:34.079Z,2.95
2023-02-01T11:49:21.271Z,2.95
2023-02-01T11:52:07.580Z,2.79
2023-02-01T11:54:49.437Z,2.98
2023-02-01T11:57:40.196Z,2.85
2023-02-01T12:00:30.234Z,2.91
2023-02-01T12:03:24.829Z,2.84
2023-02-01T12:06:23.474Z,2.81
2023-02-01T12:09:19.028Z,2.78
2023-02-01T12:11:51.682Z,2.82
2023-02-01T12:14:40.846Z,2.75
2023-02-01T12:17:35.457Z,2.74
2023-02-01T12:20:46.713Z,2.59
2023-02-01T12:23:24.620Z,2.66
2023-02-01T12:26:13.209Z,2.80
2023-02-01T12:28:46.029Z,2.86
2023-02-01T12:31:15.972Z,2.89
2023-02-01T12:33:55.074Z,2.90
2023-02-01T12:36:37.047Z,2.89
2023-02-01T12:40:01.149Z,2.93
2023-02-01T12:42:33.641Z,2.91
2023-02-01T12:45:15.616Z,2.86
2023-02-01T12:47:55.440Z,2.69
2023-02-01T12:50:33.894Z,2.90
2023-02-01T12:53:21.070Z,2.97
2023-02-01T12:55:56.802Z,2.95
2023-02-01T12:58:36.245Z,2.96
2023-02-01T13:01:49.810Z,2.96
2023-02-01T13:04:25.603Z,2.87
2023-02-01T13:06:58.297Z,2.93
2023-02-01T13:09:48.986Z,2.92
2023-02-01T13:12:21.976Z,3.05
2023-02-01T13:14:59.568Z,3.05
2023-02-01T13:17:30.086Z,2.85
2023-02-01T13:20:17.983Z,3.10
2023-02-01T13:22:48.817Z,3.08
2023-02-01T13:25:48.203Z,3.13
2023-02-01T13:28:31.740Z,3.03
2023-02-01T13:31:23.346Z,3.18
2023-02-01T13:34:27.782Z,3.17
2023-02-01T13:37:00.501Z,3.13
2023-02-01T13:39:56.556Z,3.15
2023-02-01T13:42:27.763Z,3.13
2023-02-01T13:45:21.814Z,2.93
2023-02-01T13:47:54.001Z,3.03
2023-02-01T13:50:25.836Z,2.88
2023-02-01T13:53:12.773Z,2.97
2023-02-01T13:55:42.354Z,2.93
2023-02-01T13:58:29.626Z,3.02
2023-02-01T14:01:36.099Z,2.63
2023-02-01T14:04:06.665Z,2.84
2023-02-01T14:06:36.061Z,3.03
2023-02-01T14:09:14.696Z,3.02
2023-02-01T14:11:43.291Z,2.79
2023-02-01T14:14:16.060Z,3.04
2023-02-01T14:16:55.141Z,2.99
2023-02-01T14:19:21.671Z,2.95
2023-02-01T14:21:59.867Z,2.95
2023-02-01T14:24:29.524Z,2.94
2023-02-01T14:26:59.392Z,2.77
2023-02-01T14:29:34.312Z,2.91
2023-02-01T14:32:13.466Z,2.90
2023-02-01T14:34:47.437Z,2.89
2023-02-01T14:37:21.758Z,2.85
2023-02-01T14:39:54.908Z,2.82
2023-02-01T14:42:24.741Z,2.82
2023-02-01T14:44:59.005Z,2.80
2023-02-01T14:47:26.842Z,2.77
2023-02-01T14:49:56.461Z,2.77
2023-02-01T14:52:30.674Z,2.73
2023-02-01T14:55:01.952Z,2.74
2023-02-01T14:57:29.655Z,2.57
2023-02-01T15:00:17.708Z,2.54
2023-02-01T15:02:45.415Z,2.72
2023-02-01T15:05:24.519Z,2.71
2023-02-01T15:07:53.435Z,2.72
2023-02-01T15:10:22.138Z,2.60
2023-02-01T15:12:50.337Z,2.63
2023-02-01T15:15:25.267Z,2.42
2023-02-01T15:17:58.219Z,2.67
2023-02-01T15:20:27.450Z,2.43
2023-02-01T15:23:00.239Z,2.66
2023-02-01T15:25:31.160Z,2.45
2023-02-01T15:27:58.457Z,2.57
2023-02-01T15:30:27.766Z,2.66
2023-02-01T15:33:15.768Z,2.65
2023-02-01T15:35:48.154Z,2.55
2023-02-01T15:38:30.696Z,2.68
2023-02-01T15:41:06.312Z,2.67
2023-02-01T15:43:39.840Z,2.65
2023-02-01T15:46:14.790Z,2.57
2023-02-01T15:48:46.131Z,2.47
2023-02-01T15:51:16.398Z,2.66
2023-02-01T15:53:49.652Z,2.68
2023-02-01T15:56:17.727Z,2.46
2023-02-01T15:58:49.630Z,2.70
2023-02-01T16:01:16.311Z,2.47
2023-02-01T16:03:48.183Z,2.48
2023-02-01T16:06:20.834Z,2.72
2023-02-01T16:08:56.795Z,2.71
2023-02-01T16:11:25.893Z,2.46
2023-02-01T16:13:52.631Z,2.56
2023-02-01T16:16:19.318Z,2.41
2023-02-01T16:18:46.493Z,2.31
2023-02-01T16:21:13.620Z,2.56
2023-02-01T16:23:40.335Z,2.55
2023-02-01T16:26:07.350Z,2.55
2023-02-01T16:28:34.243Z,2.55
2023-02-01T16:31:02.195Z,2.67
2023-02-01T16:33:28.944Z,2.40
2023-02-01T16:36:00.837Z,2.76
2023-02-01T16:38:27.779Z,2.76
2023-02-01T16:40:54.472Z,2.74
2023-02-01T16:43:27.099Z,2.53
2023-02-01T16:45:56.470Z,2.73
2023-02-01T16:48:24.766Z,2.70
2023-02-01T16:50:55.094Z,2.49
2023-02-01T16:53:22.509Z,2.66
2023-02-01T16:55:50.399Z,2.74
2023-02-01T16:58:17.887Z,2.64
2023-02-01T17:00:45.460Z,2.70
2023-02-01T17:03:17.439Z,2.72
2023-02-01T17:05:48.360Z,2.49
2023-02-01T17:08:20.139Z,2.62
2023-02-01T17:10:47.227Z,2.56
2023-02-01T17:13:15.845Z,2.55
2023-02-01T17:15:50.398Z,2.51
2023-02-01T17:18:18.837Z,2.46
2023-02-01T17:20:48.725Z,2.48
2023-02-01T17:23:16.864Z,2.44
2023-02-01T17:25:43.524Z,2.38
2023-02-01T17:28:10.195Z,2.26
2023-02-01T17:30:38.612Z,2.49
2023-02-01T17:33:16.902Z,2.49
2023-02-01T17:35:48.691Z,2.32
2023-02-01T17:38:15.443Z,2.04
2023-02-01T17:40:42.134Z,2.28
2023-02-01T17:43:17.125Z,2.32
2023-02-01T17:45:52.586Z,2.21
2023-02-01T17:48:20.736Z,2.32
2023-02-01T17:50:58.651Z,2.30
2023-02-01T17:53:27.452Z,2.31
2023-02-01T17:55:55.207Z,2.32
2023-02-01T17:58:21.805Z,2.13
2023-02-01T18:00:49.935Z,2.34
2023-02-01T18:03:30.256Z,2.38
2023-02-01T18:05:58.452Z,2.36
2023-02-01T18:08:30.303Z,2.15
2023-02-01T18:11:02.284Z,2.31
2023-02-01T18:13:31.118Z,2.25
2023-02-01T18:15:59.952Z,2.38
2023-02-01T18:18:28.905Z,2.50
2023-02-01T18:20:57.586Z,2.16
2023-02-01T18:23:24.470Z,2.33
2023-02-01T18:25:52.985Z,2.50
2023-02-01T18:28:20.535Z,2.46
2023-02-01T18:30:50.747Z,2.06
2023-02-01T18:33:20.267Z,2.45
2023-02-01T18:35:47.623Z,1.69
2023-02-01T18:38:15.168Z,2.25
2023-02-01T18:40:50.088Z,2.38
2023-02-01T18:43:17.070Z,2.28
2023-02-01T18:45:45.562Z,2.48
2023-02-01T18:48:14.490Z,2.50
2023-02-01T18:50:43.650Z,2.26
2023-02-01T18:53:16.579Z,2.50
2023-02-01T18:55:43.213Z,2.30
2023-02-01T18:58:13.555Z,2.56
2023-02-01T19:00:40.223Z,2.40
2023-02-01T19:03:07.379Z,2.54
2023-02-01T19:05:34.049Z,2.37
2023-02-01T19:08:00.656Z,2.63
2023-02-01T19:10:27.816Z,2.53
2023-02-01T19:12:55.856Z,2.52
2023-02-01T19:15:22.852Z,2.15
2023-02-01T19:17:51.882Z,2.59
2023-02-01T19:20:21.354Z,2.51
2023-02-01T19:22:48.518Z,2.54
2023-02-01T19:25:24.309Z,2.66
2023-02-01T19:27:52.161Z,2.66
2023-02-01T19:30:20.123Z,2.67
2023-02-01T19:32:47.145Z,2.59
2023-02-01T19:35:17.055Z,2.54
2023-02-01T19:37:43.883Z,2.15
2023-02-01T19:40:12.918Z,2.30
2023-02-01T19:42:39.857Z,2.07
2023-02-01T19:45:10.360Z,2.02
2023-02-01T19:47:37.224Z,2.07
2023-02-01T19:50:07.145Z,2.10
2023-02-01T19:52:37.027Z,1.85
2023-02-01T19:55:04.975Z,1.81
2023-02-01T19:57:32.121Z,2.07
2023-02-01T19:59:58.981Z,2.16
2023-02-01T20:02:27.829Z,1.93
2023-02-01T20:04:54.759Z,1.95
2023-02-01T20:07:22.118Z,2.17
2023-02-01T20:09:48.852Z,2.10
2023-02-01T20:12:15.540Z,2.10
2023-02-01T20:14:42.160Z,2.01
2023-02-01T20:17:14.082Z,1.91
2023-02-01T20:19:41.011Z,2.03
2023-02-01T20:22:07.729Z,2.14
2023-02-01T20:24:34.495Z,1.89
2023-02-01T20:27:02.137Z,2.16
2023-02-01T20:29:29.369Z,2.11
2023-02-01T20:31:56.064Z,1.86
2023-02-01T20:34:22.729Z,1.71
2023-02-01T20:36:49.408Z,1.60
2023-02-01T20:39:16.102Z,1.85
2023-02-01T20:41:43.652Z,1.88
2023-02-01T20:44:10.499Z,1.91
2023-02-01T20:46:37.134Z,1.70
2023-02-01T20:49:03.846Z,1.67
2023-02-01T20:51:30.465Z,1.23
2023-02-01T20:53:57.073Z,1.63
2023-02-01T20:56:23.927Z,1.85
2023-02-01T20:58:50.586Z,1.58
2023-02-01T21:01:17.220Z,1.66
2023-02-01T21:03:43.978Z,1.86
2023-02-01T21:06:12.786Z,1.86
2023-02-01T21:08:41.440Z,1.66
2023-02-01T21:11:13.588Z,1.68
2023-02-01T21:13:44.185Z,1.89
2023-02-01T21:16:15.806Z,1.69
2023-02-01T21:18:42.471Z,1.72
2023-02-01T21:21:12.535Z,1.71
2023-02-01T21:23:46.954Z,1.52
2023-02-01T21:26:19.229Z,2.01
2023-02-01T21:28:45.852Z,1.93
2023-02-01T21:31:14.030Z,1.96
2023-02-01T21:33:41.036Z,1.91
2023-02-01T21:36:08.028Z,2.01
2023-02-01T21:38:34.773Z,2.13
2023-02-01T21:41:20.008Z,1.87
2023-02-01T21:43:47.025Z,1.96
2023-02-01T21:46:13.747Z,1.96
2023-02-01T21:49:04.783Z,1.76
2023-02-01T21:51:28.736Z,1.63
2023-02-01T21:53:56.218Z,1.57
2023-02-01T21:56:26.696Z,1.59
2023-02-01T21:58:53.428Z,1.47
2023-02-01T22:01:20.076Z,1.36
2023-02-01T22:03:46.852Z,1.23
2023-02-01T22:06:31.185Z,1.35
2023-02-01T22:08:57.858Z,1.04
2023-02-01T22:11:24.557Z,1.19
2023-02-01T22:13:51.919Z,1.21
2023-02-01T22:16:21.393Z,1.18
2023-02-01T22:18:49.294Z,0.97
2023-02-01T22:21:16.113Z,1.27
2023-02-01T22:23:42.749Z,1.10
2023-02-01T22:26:11.436Z,1.05
2023-02-01T22:28:41.093Z,0.77
2023-02-01T22:31:09.793Z,0.43
2023-02-01T22:33:36.978Z,0.60
2023-02-01T22:36:05.081Z,0.41
2023-02-01T22:38:35.809Z,0.12
2023-02-01T22:41:05.649Z,-0.13
2023-02-01T22:43:33.210Z,-0.54
2023-02-01T22:46:04.904Z,-0.70
2023-02-01T22:48:35.855Z,-0.77
2023-02-01T22:51:03.184Z,-0.65
2023-02-01T22:53:31.067Z,-0.62
2023-02-01T22:56:05.931Z,-0.33
2023-02-01T22:58:35.870Z,-0.18
2023-02-01T23:01:13.161Z,-0.65
2023-02-01T23:03:40.863Z,-0.33
2023-02-01T23:06:11.104Z,-0.20
2023-02-01T23:08:39.428Z,-0.48
2023-02-01T23:11:09.441Z,-0.71
2023-02-01T23:13:37.667Z,-0.24
2023-02-01T23:16:10.486Z,0.11
2023-02-01T23:18:37.609Z,-0.14
2023-02-01T23:21:13.310Z,-0.20
2023-02-01T23:23:40.737Z,-0.02
2023-02-01T23:26:07.413Z,-0.19
2023-02-01T23:28:34.046Z,0.02
2023-02-01T23:31:06.799Z,0.11
2023-02-01T23:33:33.825Z,0.02
2023-02-01T23:36:02.979Z,0.17
2023-02-01T23:38:29.904Z,0.05
2023-02-01T23:41:01.152Z,0.28
2023-02-01T23:43:47.440Z,0.43
2023-02-01T23:46:15.852Z,0.39
2023-02-01T23:48:47.012Z,0.35
2023-02-01T23:51:14.637Z,0.36
2023-02-01T23:53:41.482Z,0.39
2023-02-01T23:56:08.512Z,0.33
2023-02-01T23:58:35.231Z,0.14
